createdAt,value
2018-02-20T00:01:54.634Z,40.40
2018-02-20T00:04:21.780Z,40.93
2018-02-20T00:06:48.260Z,40.90
2018-02-20T00:09:16.002Z,40.78
2018-02-20T00:11:42.426Z,41.53
2018-02-20T00:14:08.857Z,40.20
2018-02-20T00:16:36.038Z,39.83
2018-02-20T00:19:02.504Z,40.83
2018-02-20T00:21:28.949Z,39.42
2018-02-20T00:23:56.222Z,40.92
2018-02-20T00:26:22.674Z,40.88
2018-02-20T00:28:49.837Z,41.97
2018-02-20T00:31:16.993Z,40.05
2018-02-20T00:33:43.394Z,41.35
2018-02-20T00:36:09.805Z,40.83
2018-02-20T00:38:41.590Z,41.03
2018-02-20T00:41:08.875Z,41.47
2018-02-20T00:43:36.006Z,40.25
2018-02-20T00:46:02.494Z,40.53
2018-02-20T00:48:29.662Z,41.08
2018-02-20T00:50:56.070Z,39.97
2018-02-20T00:53:22.506Z,40.28
2018-02-20T00:55:48.898Z,41.40
2018-02-20T00:58:15.329Z,40.65
2018-02-20T01:00:41.734Z,41.22
2018-02-20T01:03:08.915Z,39.88
2018-02-20T01:05:36.079Z,41.72
2018-02-20T01:08:02.567Z,41.92
2018-02-20T01:10:28.990Z,39.53
2018-02-20T01:12:55.404Z,40.63
2018-02-20T01:15:21.806Z,40.35
2018-02-20T01:17:48.977Z,40.67
2018-02-20T01:20:16.133Z,40.20
2018-02-20T01:22:43.291Z,40.08
2018-02-20T01:25:09.741Z,40.38
2018-02-20T01:27:36.125Z,39.97
2018-02-20T01:30:03.366Z,39.10
2018-02-20T01:32:29.794Z,40.05
2018-02-20T01:34:56.206Z,40.20
2018-02-20T01:37:22.613Z,38.97
2018-02-20T01:39:49.057Z,39.43
2018-02-20T01:42:15.496Z,39.80
2018-02-20T01:44:42.662Z,40.03
2018-02-20T01:47:09.825Z,39.42
2018-02-20T01:49:36.228Z,39.05
2018-02-20T01:52:02.652Z,39.97
2018-02-20T01:54:29.085Z,41.10
2018-02-20T01:56:59.306Z,39.93
2018-02-20T01:59:25.827Z,40.60
2018-02-20T02:01:52.263Z,41.15
2018-02-20T02:04:19.401Z,41.50
2018-02-20T02:06:45.819Z,39.75
2018-02-20T02:09:12.311Z,41.22
2018-02-20T02:11:38.741Z,39.43
2018-02-20T02:14:05.165Z,41.65
2018-02-20T02:16:31.600Z,41.08
2018-02-20T02:18:58.789Z,41.60
2018-02-20T02:21:25.244Z,41.95
2018-02-20T02:23:52.388Z,40.90
2018-02-20T02:26:18.791Z,40.72
2018-02-20T02:28:45.235Z,40.92
2018-02-20T02:31:11.632Z,40.47
2018-02-20T02:33:38.070Z,40.47
2018-02-20T02:36:04.467Z,39.58
2018-02-20T02:38:31.647Z,41.30
2018-02-20T02:40:58.822Z,41.40
2018-02-20T02:43:25.284Z,40.55
2018-02-20T02:45:52.465Z,40.30
2018-02-20T02:48:19.679Z,40.80
2018-02-20T02:50:46.106Z,38.03
2018-02-20T02:53:12.537Z,38.60
2018-02-20T02:55:39.823Z,37.92
2018-02-20T02:58:06.972Z,38.58
2018-02-20T03:00:34.114Z,39.58
2018-02-20T03:03:00.490Z,39.30
2018-02-20T03:05:27.433Z,37.80
2018-02-20T03:07:53.846Z,37.55
2018-02-20T03:10:20.988Z,37.90
2018-02-20T03:12:48.902Z,36.40
2018-02-20T03:15:16.065Z,36.72
2018-02-20T03:17:43.208Z,38.05
2018-02-20T03:20:10.355Z,37.63
2018-02-20T03:22:36.794Z,37.42
2018-02-20T03:25:03.220Z,35.78
2018-02-20T03:27:30.377Z,36.38
2018-02-20T03:29:56.811Z,36.60
2018-02-20T03:32:23.255Z,36.97
2018-02-20T03:34:49.667Z,36.00
2018-02-20T03:37:16.815Z,36.10
2018-02-20T03:39:43.841Z,36.85
2018-02-20T03:42:10.244Z,36.13
2018-02-20T03:44:37.422Z,35.60
2018-02-20T03:47:04.561Z,35.95
2018-02-20T03:49:30.967Z,35.10
2018-02-20T03:51:57.368Z,35.40
2018-02-20T03:54:24.328Z,36.05
2018-02-20T03:56:50.843Z,35.67
2018-02-20T03:59:17.989Z,33.87
2018-02-20T04:01:44.367Z,35.15
2018-02-20T04:04:13.514Z,35.20
2018-02-20T04:06:39.975Z,33.80
2018-02-20T04:11:46.450Z,33.90
2018-02-20T04:14:13.595Z,34.25
2018-02-20T04:16:40.287Z,34.30
2018-02-20T04:19:07.444Z,34.45
2018-02-20T04:21:34.627Z,35.25
2018-02-20T04:24:02.623Z,35.05
2018-02-20T04:26:29.753Z,34.30
2018-02-20T04:28:56.211Z,33.50
2018-02-20T04:31:22.675Z,34.53
2018-02-20T04:33:49.093Z,34.65
2018-02-20T04:36:15.472Z,33.92
2018-02-20T04:38:41.880Z,34.30
2018-02-20T04:41:08.283Z,33.05
2018-02-20T04:43:34.675Z,33.95
2018-02-20T04:46:01.825Z,34.65
2018-02-20T04:48:28.244Z,35.22
2018-02-20T04:50:54.668Z,35.55
2018-02-20T04:53:21.816Z,34.90
2018-02-20T04:55:48.240Z,36.95
2018-02-20T04:58:14.639Z,35.35
2018-02-20T05:00:41.796Z,35.25
2018-02-20T05:03:08.225Z,36.97
2018-02-20T05:05:34.615Z,39.85
2018-02-20T05:08:01.756Z,38.55
2018-02-20T05:10:28.171Z,38.22
2018-02-20T05:12:54.569Z,38.35
2018-02-20T05:15:21.068Z,37.65
2018-02-20T05:17:48.248Z,37.40
2018-02-20T05:20:14.798Z,35.20
2018-02-20T05:22:41.971Z,39.30
2018-02-20T05:25:09.144Z,37.08
2018-02-20T05:27:36.306Z,37.53
2018-02-20T05:30:02.809Z,38.35
2018-02-20T05:32:29.242Z,38.80
2018-02-20T05:34:55.676Z,37.22
2018-02-20T05:37:22.958Z,37.63
2018-02-20T05:39:50.114Z,38.20
2018-02-20T05:42:16.534Z,37.17
2018-02-20T05:44:42.947Z,33.95
2018-02-20T05:47:09.372Z,36.25
2018-02-20T05:49:35.795Z,37.13
2018-02-20T05:52:02.215Z,37.70
2018-02-20T05:54:28.637Z,35.47
2018-02-20T05:56:55.059Z,34.20
2018-02-20T05:59:21.499Z,34.05
2018-02-20T06:01:47.963Z,33.53
2018-02-20T06:04:14.335Z,34.45
2018-02-20T06:06:40.787Z,33.90
2018-02-20T06:09:07.247Z,36.15
2018-02-20T06:11:33.657Z,35.15
2018-02-20T06:14:00.068Z,34.50
2018-02-20T06:16:26.521Z,35.50
2018-02-20T06:18:52.918Z,42.22
2018-02-20T06:21:20.098Z,43.70
2018-02-20T06:23:46.502Z,40.85
2018-02-20T06:26:12.975Z,43.35
2018-02-20T06:28:40.159Z,82.82
2018-02-20T06:31:06.570Z,51.75
2018-02-20T06:33:32.988Z,45.03
2018-02-20T06:35:59.425Z,36.72
2018-02-20T06:38:25.919Z,36.30
2018-02-20T06:40:52.457Z,33.83
2018-02-20T06:43:19.732Z,33.25
2018-02-20T06:45:46.923Z,33.50
2018-02-20T06:48:13.352Z,34.30
2018-02-20T06:50:40.519Z,33.50
2018-02-20T06:53:07.717Z,33.88
2018-02-20T06:55:34.173Z,35.90
2018-02-20T06:58:00.578Z,34.53
2018-02-20T07:00:27.002Z,31.25
2018-02-20T07:02:53.406Z,42.55
2018-02-20T07:05:19.787Z,36.75
2018-02-20T07:07:46.214Z,44.13
2018-02-20T07:10:12.639Z,42.08
2018-02-20T07:12:39.151Z,58.08
2018-02-20T07:15:05.608Z,39.25
2018-02-20T07:17:32.854Z,38.23
2018-02-20T07:19:59.305Z,37.60
2018-02-20T07:22:25.746Z,32.00
2018-02-20T07:24:57.173Z,33.40
2018-02-20T07:27:23.617Z,31.25
2018-02-20T07:29:50.055Z,30.35
2018-02-20T07:32:17.233Z,30.05
2018-02-20T07:34:44.365Z,31.08
2018-02-20T07:37:10.819Z,31.67
2018-02-20T07:39:37.265Z,30.23
2018-02-20T07:42:03.710Z,30.05
2018-02-20T07:44:30.239Z,30.98
2018-02-20T07:46:57.514Z,31.10
2018-02-20T07:49:24.683Z,28.60
2018-02-20T07:51:51.831Z,29.80
2018-02-20T07:54:18.316Z,30.27
2018-02-20T07:56:45.464Z,28.42
2018-02-20T07:59:11.898Z,30.55
2018-02-20T08:01:38.342Z,29.20
2018-02-20T08:04:04.734Z,32.72
2018-02-20T08:06:31.925Z,30.77
2018-02-20T08:08:59.142Z,30.75
2018-02-20T08:11:25.657Z,30.85
2018-02-20T08:13:52.785Z,31.00
2018-02-20T08:16:19.284Z,29.58
2018-02-20T08:18:46.463Z,32.17
2018-02-20T08:21:13.015Z,29.15
2018-02-20T08:23:40.171Z,50.75
2018-02-20T08:26:07.351Z,28.17
2018-02-20T08:28:34.635Z,30.08
2018-02-20T08:31:01.785Z,28.30
2018-02-20T08:33:28.262Z,28.20
2018-02-20T08:35:55.539Z,29.05
2018-02-20T08:38:22.669Z,26.45
2018-02-20T08:40:49.078Z,28.80
2018-02-20T08:43:15.621Z,27.48
2018-02-20T08:45:42.916Z,28.10
2018-02-20T08:48:09.410Z,27.52
2018-02-20T08:50:35.820Z,29.20
2018-02-20T08:53:02.258Z,27.60
2018-02-20T08:55:29.394Z,28.08
2018-02-20T08:57:55.799Z,27.67
2018-02-20T09:00:22.189Z,28.23
2018-02-20T09:02:48.703Z,27.83
2018-02-20T09:05:15.877Z,28.85
2018-02-20T09:07:43.253Z,27.92
2018-02-20T09:10:10.496Z,30.13
2018-02-20T09:12:36.912Z,43.67
2018-02-20T09:15:03.368Z,79.67
2018-02-20T09:17:29.776Z,108.30
2018-02-20T09:19:56.983Z,47.13
2018-02-20T09:22:23.387Z,37.92
2018-02-20T09:24:49.805Z,27.98
2018-02-20T09:27:16.207Z,29.90
2018-02-20T09:29:42.565Z,26.92
2018-02-20T09:32:08.976Z,35.75
2018-02-20T09:34:35.390Z,26.33
2018-02-20T09:37:01.852Z,27.00
2018-02-20T09:39:29.006Z,27.58
2018-02-20T09:41:56.162Z,28.20
2018-02-20T09:44:22.617Z,25.90
2018-02-20T09:46:49.013Z,25.70
2018-02-20T09:49:16.175Z,25.60
2018-02-20T09:51:43.352Z,26.35
2018-02-20T09:54:10.530Z,23.20
2018-02-20T09:56:36.938Z,25.17
2018-02-20T09:59:03.378Z,23.60
2018-02-20T10:01:29.824Z,25.35
2018-02-20T10:03:56.239Z,23.43
2018-02-20T10:06:23.388Z,23.27
2018-02-20T10:08:50.551Z,24.70
2018-02-20T10:11:17.047Z,24.90
2018-02-20T10:13:44.241Z,25.27
2018-02-20T10:16:10.652Z,25.02
2018-02-20T10:18:37.666Z,25.10
2018-02-20T10:21:04.128Z,25.00
2018-02-20T10:23:30.562Z,25.23
2018-02-20T10:25:56.967Z,22.33
2018-02-20T10:28:23.400Z,23.60
2018-02-20T10:30:49.831Z,23.05
2018-02-20T10:33:16.212Z,22.92
2018-02-20T10:35:42.616Z,21.23
2018-02-20T10:38:09.066Z,24.90
2018-02-20T10:40:35.488Z,21.02
2018-02-20T10:43:01.942Z,21.90
2018-02-20T10:45:28.410Z,21.15
2018-02-20T10:47:54.820Z,23.33
2018-02-20T10:50:21.276Z,21.83
2018-02-20T10:52:47.750Z,19.73
2018-02-20T10:55:14.787Z,20.67
2018-02-20T10:57:41.950Z,18.85
2018-02-20T11:00:09.102Z,18.45
2018-02-20T11:02:35.536Z,17.70
2018-02-20T11:05:02.016Z,17.35
2018-02-20T11:07:28.411Z,19.40
2018-02-20T11:09:54.838Z,21.02
2018-02-20T11:12:21.251Z,19.30
2018-02-20T11:14:47.691Z,19.17
2018-02-20T11:17:14.119Z,19.40
2018-02-20T11:19:41.276Z,19.25
2018-02-20T11:22:07.696Z,21.30
2018-02-20T11:24:34.156Z,20.93
2018-02-20T11:27:00.596Z,20.58
2018-02-20T11:29:27.014Z,18.40
2018-02-20T11:31:54.302Z,19.85
2018-02-20T11:34:20.805Z,19.58
2018-02-20T11:36:47.272Z,18.58
2018-02-20T11:39:15.172Z,18.95
2018-02-20T11:41:41.719Z,19.40
2018-02-20T11:44:08.125Z,18.87
2018-02-20T11:46:34.754Z,20.23
2018-02-20T11:49:01.176Z,20.45
2018-02-20T11:51:28.404Z,21.40
2018-02-20T11:53:56.084Z,21.45
2018-02-20T11:56:23.273Z,21.23
2018-02-20T11:58:49.816Z,22.20
2018-02-20T12:01:17.094Z,22.05
2018-02-20T12:03:43.503Z,22.33
2018-02-20T12:06:10.668Z,21.73
2018-02-20T12:08:37.088Z,21.30
2018-02-20T12:11:03.576Z,23.70
2018-02-20T12:13:30.053Z,23.75
2018-02-20T12:15:56.579Z,22.40
2018-02-20T12:18:23.032Z,22.30
2018-02-20T12:20:49.429Z,22.33
2018-02-20T12:23:16.615Z,23.40
2018-02-20T12:25:43.762Z,22.40
2018-02-20T12:28:10.254Z,22.08
2018-02-20T12:30:37.426Z,23.87
2018-02-20T12:33:04.556Z,23.92
2018-02-20T12:35:30.985Z,22.65
2018-02-20T12:37:57.513Z,23.02
2018-02-20T12:40:23.948Z,22.77
2018-02-20T12:42:50.405Z,24.90
2018-02-20T12:45:16.859Z,22.90
2018-02-20T12:47:43.275Z,23.65
2018-02-20T12:50:09.792Z,23.38
2018-02-20T12:52:36.974Z,24.40
2018-02-20T12:55:03.525Z,25.58
2018-02-20T12:57:30.717Z,24.77
2018-02-20T12:59:57.149Z,24.50
2018-02-20T13:02:24.332Z,24.67
2018-02-20T13:04:50.745Z,26.23
2018-02-20T13:07:17.214Z,25.40
2018-02-20T13:09:43.634Z,26.10
2018-02-20T13:12:10.096Z,26.50
2018-02-20T13:14:36.512Z,27.70
2018-02-20T13:17:03.713Z,26.98
2018-02-20T13:19:30.179Z,26.10
2018-02-20T13:21:56.824Z,27.00
2018-02-20T13:24:23.518Z,27.00
2018-02-20T13:26:49.992Z,26.40
2018-02-20T13:29:16.461Z,25.90
2018-02-20T13:31:42.890Z,28.42
2018-02-20T13:34:09.303Z,23.70
2018-02-20T13:36:35.941Z,26.30
2018-02-20T13:39:03.263Z,27.87
2018-02-20T13:41:30.488Z,29.13
2018-02-20T13:43:57.575Z,29.90
2018-02-20T13:46:24.370Z,31.77
2018-02-20T13:48:51.557Z,27.80
2018-02-20T13:51:18.027Z,28.05
2018-02-20T13:53:44.644Z,26.50
2018-02-20T13:56:11.087Z,25.50
2018-02-20T13:58:40.725Z,25.35
2018-02-20T14:01:07.164Z,24.63
2018-02-20T14:03:33.644Z,25.80
2018-02-20T14:06:00.176Z,23.65
2018-02-20T14:08:26.709Z,25.63
2018-02-20T14:10:53.181Z,22.85
2018-02-20T14:13:20.254Z,25.67
2018-02-20T14:15:46.720Z,24.53
2018-02-20T14:18:14.060Z,24.85
2018-02-20T14:20:40.646Z,25.27
2018-02-20T14:23:07.093Z,25.77
2018-02-20T14:25:33.887Z,26.45
2018-02-20T14:28:00.294Z,45.12
2018-02-20T14:30:27.492Z,25.73
2018-02-20T14:32:54.009Z,25.60
2018-02-20T14:35:20.598Z,59.53
2018-02-20T14:37:47.041Z,26.37
2018-02-20T14:40:15.108Z,22.92
2018-02-20T14:42:42.540Z,22.30
2018-02-20T14:45:09.073Z,23.27
2018-02-20T14:47:36.271Z,22.67
2018-02-20T14:50:02.822Z,23.20
2018-02-20T14:52:29.793Z,23.10
2018-02-20T14:54:56.472Z,24.20
2018-02-20T14:57:23.116Z,22.13
2018-02-20T14:59:49.584Z,22.05
2018-02-20T15:02:17.221Z,23.20
2018-02-20T15:04:43.814Z,22.45
2018-02-20T15:07:10.827Z,23.27
2018-02-20T15:09:38.100Z,22.20
2018-02-20T15:12:05.374Z,22.67
2018-02-20T15:14:31.837Z,23.62
2018-02-20T15:16:59.017Z,24.53
2018-02-20T15:19:25.490Z,25.30
2018-02-20T15:21:52.011Z,41.23
2018-02-20T15:24:18.504Z,30.30
2018-02-20T15:26:45.843Z,32.08
2018-02-20T15:29:12.587Z,30.05
2018-02-20T15:31:39.051Z,27.42
2018-02-20T15:34:05.590Z,25.85
2018-02-20T15:36:32.280Z,28.43
2018-02-20T15:38:58.856Z,26.90
2018-02-20T15:41:25.288Z,26.80
2018-02-20T15:43:51.954Z,27.40
2018-02-20T15:46:18.417Z,27.70
2018-02-20T15:48:44.877Z,27.27
2018-02-20T15:51:11.383Z,26.83
2018-02-20T15:53:37.843Z,27.25
2018-02-20T15:56:05.092Z,28.17
2018-02-20T15:58:32.392Z,28.45
2018-02-20T16:00:59.195Z,29.50
2018-02-20T16:03:25.945Z,31.03
2018-02-20T16:05:52.380Z,30.92
2018-02-20T16:08:18.930Z,31.00
2018-02-20T16:10:45.729Z,29.12
2018-02-20T16:13:12.197Z,28.98
2018-02-20T16:15:41.575Z,29.37
2018-02-20T16:18:08.036Z,26.37
2018-02-20T16:20:35.203Z,28.58
2018-02-20T16:23:03.534Z,34.08
2018-02-20T16:25:30.467Z,34.20
2018-02-20T16:27:57.874Z,43.37
2018-02-20T16:30:24.404Z,37.97
2018-02-20T16:32:51.855Z,35.60
2018-02-20T16:35:18.333Z,41.80
2018-02-20T16:37:45.613Z,39.60
2018-02-20T16:40:12.158Z,28.58
2018-02-20T16:42:38.811Z,28.10
2018-02-20T16:45:10.000Z,27.50
2018-02-20T16:47:36.451Z,26.90
2018-02-20T16:50:03.618Z,25.05
2018-02-20T16:52:30.882Z,27.42
2018-02-20T16:54:57.539Z,35.83
2018-02-20T16:57:24.909Z,36.20
2018-02-20T16:59:52.208Z,41.60
2018-02-20T17:02:20.307Z,40.15
2018-02-20T17:04:46.843Z,43.08
2018-02-20T17:07:13.657Z,42.10
2018-02-20T17:09:40.338Z,43.27
2018-02-20T17:12:06.795Z,47.35
2018-02-20T17:14:33.234Z,47.03
2018-02-20T17:16:59.834Z,45.08
2018-02-20T17:19:26.925Z,45.70
2018-02-20T17:21:53.569Z,43.75
2018-02-20T17:24:20.305Z,58.38
2018-02-20T17:26:46.783Z,48.35
2018-02-20T17:29:14.440Z,47.95
2018-02-20T17:31:41.195Z,137.18
2018-02-20T17:34:07.705Z,55.30
2018-02-20T17:36:34.984Z,44.28
2018-02-20T17:39:01.500Z,48.20
2018-02-20T17:41:27.967Z,46.13
2018-02-20T17:43:54.861Z,47.08
2018-02-20T17:46:21.338Z,47.27
2018-02-20T17:48:48.123Z,45.25
2018-02-20T17:51:14.842Z,46.35
2018-02-20T17:53:41.999Z,44.80
2018-02-20T17:56:09.652Z,45.53
2018-02-20T17:58:36.139Z,48.03
2018-02-20T18:01:02.717Z,47.90
2018-02-20T18:03:29.392Z,46.85
2018-02-20T18:05:55.987Z,47.83
2018-02-20T18:08:23.362Z,48.25
2018-02-20T18:11:17.435Z,49.80
2018-02-20T18:13:43.884Z,48.90
2018-02-20T18:16:10.354Z,51.37
2018-02-20T18:18:36.851Z,51.03
2018-02-20T18:21:04.048Z,56.80
2018-02-20T18:23:30.492Z,54.08
2018-02-20T18:25:56.923Z,54.28
2018-02-20T18:28:24.105Z,48.85
2018-02-20T18:30:51.287Z,50.38
2018-02-20T18:33:17.753Z,50.78
2018-02-20T18:35:44.146Z,51.25
2018-02-20T18:38:10.575Z,51.28
2018-02-20T18:40:37.010Z,53.85
2018-02-20T18:43:03.506Z,54.07
2018-02-20T18:45:29.984Z,56.08
2018-02-20T18:47:56.400Z,57.72
2018-02-20T18:50:23.035Z,58.10
2018-02-20T18:52:50.271Z,57.67
2018-02-20T18:55:17.611Z,57.70
2018-02-20T18:57:44.105Z,61.90
2018-02-20T19:00:10.599Z,69.12
2018-02-20T19:02:37.772Z,118.22
2018-02-20T19:05:04.942Z,80.18
2018-02-20T19:07:32.219Z,82.85
2018-02-20T19:09:58.876Z,71.68
2018-02-20T19:12:25.380Z,83.43
2018-02-20T19:14:51.893Z,73.77
2018-02-20T19:17:19.165Z,79.60
2018-02-20T19:19:47.221Z,71.50
2018-02-20T19:22:14.458Z,60.15
2018-02-20T19:24:40.930Z,56.33
2018-02-20T19:27:07.336Z,55.53
2018-02-20T19:29:34.854Z,52.45
2018-02-20T19:32:01.364Z,48.58
2018-02-20T19:34:28.656Z,53.35
2018-02-20T19:36:55.853Z,54.43
2018-02-20T19:39:22.385Z,54.38
2018-02-20T19:41:49.763Z,53.17
2018-02-20T19:44:16.223Z,55.78
2018-02-20T19:46:42.654Z,56.00
2018-02-20T19:49:09.234Z,57.17
2018-02-20T19:51:36.454Z,58.33
2018-02-20T19:54:03.023Z,52.77
2018-02-20T19:56:29.466Z,54.03
2018-02-20T19:58:55.858Z,54.60
2018-02-20T20:01:22.274Z,57.05
2018-02-20T20:03:48.892Z,56.05
2018-02-20T20:06:15.450Z,54.53
2018-02-20T20:08:42.646Z,58.83
2018-02-20T20:11:09.062Z,57.92
2018-02-20T20:13:35.497Z,55.72
2018-02-20T20:16:01.963Z,53.42
2018-02-20T20:18:28.417Z,54.15
2018-02-20T20:20:55.005Z,53.38
2018-02-20T20:23:22.463Z,54.95
2018-02-20T20:25:49.622Z,54.35
2018-02-20T20:28:17.166Z,52.50
2018-02-20T20:30:43.614Z,50.42
2018-02-20T20:33:10.123Z,50.10
2018-02-20T20:35:37.393Z,51.47
2018-02-20T20:38:03.893Z,50.83
2018-02-20T20:40:30.303Z,51.47
2018-02-20T20:42:57.612Z,52.90
2018-02-20T20:45:24.172Z,53.42
2018-02-20T20:47:51.444Z,52.53
2018-02-20T20:50:18.650Z,53.03
2018-02-20T20:52:46.096Z,52.13
2018-02-20T20:55:12.655Z,52.72
2018-02-20T20:57:39.116Z,51.10
2018-02-20T21:00:05.562Z,50.53
2018-02-20T21:02:32.843Z,48.22
2018-02-20T21:04:59.997Z,49.17
2018-02-20T21:07:27.169Z,50.55
2018-02-20T21:09:53.592Z,51.83
2018-02-20T21:12:19.996Z,49.92
2018-02-20T21:14:47.200Z,51.37
2018-02-20T21:17:13.694Z,51.75
2018-02-20T21:19:40.160Z,52.25
2018-02-20T21:22:06.624Z,51.22
2018-02-20T21:24:33.827Z,45.12
2018-02-20T21:27:00.369Z,45.97
2018-02-20T21:29:27.538Z,46.78
2018-02-20T21:31:54.724Z,44.72
2018-02-20T21:34:21.166Z,46.75
2018-02-20T21:36:48.348Z,46.88
2018-02-20T21:39:14.898Z,45.80
2018-02-20T21:41:42.189Z,44.30
2018-02-20T21:44:08.615Z,45.40
2018-02-20T21:46:36.011Z,45.30
2018-02-20T21:49:02.674Z,50.92
2018-02-20T21:51:29.280Z,47.55
2018-02-20T21:53:55.724Z,52.20
2018-02-20T21:56:22.189Z,48.15
2018-02-20T21:58:48.622Z,46.47
2018-02-20T22:01:15.054Z,45.65
2018-02-20T22:03:42.225Z,44.10
2018-02-20T22:06:09.477Z,46.47
2018-02-20T22:08:36.638Z,45.03
2018-02-20T22:11:03.126Z,45.35
2018-02-20T22:13:30.306Z,45.83
2018-02-20T22:15:56.756Z,44.90
2018-02-20T22:18:23.968Z,46.15
2018-02-20T22:20:50.366Z,45.88
2018-02-20T22:23:16.786Z,45.20
2018-02-20T22:25:43.188Z,44.25
2018-02-20T22:28:10.495Z,45.45
2018-02-20T22:30:36.923Z,46.13
2018-02-20T22:33:04.157Z,46.90
2018-02-20T22:35:30.640Z,49.97
2018-02-20T22:37:58.013Z,43.75
2018-02-20T22:40:24.418Z,44.25
2018-02-20T22:42:50.852Z,50.00
2018-02-20T22:45:17.311Z,57.30
2018-02-20T22:47:43.734Z,59.05
2018-02-20T22:50:10.163Z,64.85
2018-02-20T22:52:36.577Z,70.40
2018-02-20T22:55:03.197Z,71.45
2018-02-20T22:57:30.399Z,78.15
2018-02-20T22:59:57.649Z,79.03
2018-02-20T23:02:24.238Z,78.72
2018-02-20T23:04:50.722Z,65.35
2018-02-20T23:07:17.176Z,57.35
2018-02-20T23:09:43.651Z,57.10
2018-02-20T23:12:10.259Z,57.10
2018-02-20T23:14:36.822Z,50.53
2018-02-20T23:17:03.942Z,48.65
2018-02-20T23:19:30.382Z,49.00
2018-02-20T23:21:56.907Z,51.45
2018-02-20T23:24:23.460Z,55.97
2018-02-20T23:26:50.610Z,49.55
2018-02-20T23:29:17.047Z,49.35
2018-02-20T23:31:44.103Z,52.47
2018-02-20T23:34:10.678Z,50.23
2018-02-20T23:36:37.119Z,51.00
2018-02-20T23:39:03.631Z,48.65
2018-02-20T23:41:30.800Z,49.70
2018-02-20T23:43:57.959Z,47.62
2018-02-20T23:46:24.947Z,45.63
2018-02-20T23:48:51.405Z,47.13
2018-02-20T23:51:23.917Z,44.92
2018-02-20T23:53:50.349Z,45.25
2018-02-20T23:56:19.617Z,47.25
2018-02-20T23:58:46.026Z,46.85
